Terminal Aerodrome Forecast
Issued by NWS Pendleton, OR

Home | Current Version | Previous Version | Text Only | Print | Product List | Glossary On
Versions: 1 2 3 4 5 6 7 8 9 10 11 12 13
000
FTUS46 KPDT 221100
TAFPDT
TAF
KPDT 221120Z 2212/2312 16006KT P6SM SCT150 BKN250
     FM221700 31009KT P6SM SCT100 BKN150
     FM230000 30008KT P6SM VCTS BKN100CB OVC120
     FM230400 16005KT P6SM VCSH SCT080 OVC100=

USA.gov is the U.S. government's official web portal to all federal, state and local government web resources and services.